createdAt,value
2018-09-01T00:00:07.345Z,86.407471
2018-09-01T00:01:23.322Z,86.309814
2018-09-01T00:02:39.282Z,85.595703
2018-09-01T00:03:55.182Z,85.498047
2018-09-01T00:05:11.097Z,85.803223
2018-09-01T00:06:27.091Z,86.102295
2018-09-01T00:07:43.038Z,85.498047
2018-09-01T00:08:59.155Z,86.407471
2018-09-01T00:10:15.143Z,86.755371
2018-09-01T00:11:31.061Z,86.859131
2018-09-01T00:12:47.122Z,86.102295
2018-09-01T00:14:03.124Z,86.004639
2018-09-01T00:15:19.041Z,86.206055
2018-09-01T00:16:34.952Z,86.102295
2018-09-01T00:17:50.881Z,85.803223
2018-09-01T00:19:06.799Z,85.699463
2018-09-01T00:20:22.716Z,86.51123
2018-09-01T00:21:38.732Z,86.553955
2018-09-01T00:22:54.766Z,86.450195
2018-09-01T00:24:10.776Z,86.309814
2018-09-01T00:25:26.709Z,86.309814
2018-09-01T00:26:42.607Z,86.206055
2018-09-01T00:27:58.613Z,85.803223
2018-09-01T00:29:14.656Z,85.595703
2018-09-01T00:30:30.661Z,85.900879
2018-09-01T00:31:46.584Z,85.699463
2018-09-01T00:33:02.535Z,85.595703
2018-09-01T00:34:18.491Z,85.357666
2018-09-01T00:35:34.441Z,85.455322
2018-09-01T00:36:50.388Z,85.699463
2018-09-01T00:38:06.339Z,86.102295
2018-09-01T00:39:22.273Z,85.760498
2018-09-01T00:40:38.171Z,85.595703
2018-09-01T00:41:54.191Z,86.407471
2018-09-01T00:43:10.092Z,86.309814
2018-09-01T00:44:26.062Z,86.407471
2018-09-01T00:45:42.054Z,86.102295
2018-09-01T00:46:57.981Z,86.102295
2018-09-01T00:48:14.030Z,86.206055
2018-09-01T00:49:29.960Z,85.900879
2018-09-01T00:50:46.103Z,85.455322
2018-09-01T00:52:02.082Z,85.864258
2018-09-01T00:53:18.000Z,85.559082
2018-09-01T00:54:33.986Z,85.803223
2018-09-01T00:55:49.928Z,85.455322
2018-09-01T00:57:05.860Z,85.559082
2018-09-01T00:58:21.790Z,85.900879
2018-09-01T00:59:37.800Z,85.900879
2018-09-01T01:00:53.719Z,85.760498
2018-09-01T01:02:09.805Z,85.559082
2018-09-01T01:03:25.891Z,85.05249
2018-09-01T01:04:41.825Z,86.206055
2018-09-01T01:05:58.704Z,86.816406
2018-09-01T01:07:14.628Z,86.51123
2018-09-01T01:08:30.576Z,86.26709
2018-09-01T01:09:46.624Z,86.102295
2018-09-01T01:11:02.591Z,85.656738
2018-09-01T01:12:18.534Z,85.760498
2018-09-01T01:13:34.465Z,85.760498
2018-09-01T01:14:50.384Z,86.102295
2018-09-01T01:16:06.283Z,86.102295
2018-09-01T01:17:22.202Z,86.309814
2018-09-01T01:18:38.220Z,86.914062
2018-09-01T01:19:54.110Z,86.712646
2018-09-01T01:21:10.096Z,87.121582
2018-09-01T01:22:26.177Z,86.914062
2018-09-01T01:23:42.169Z,87.261963
2018-09-01T01:24:58.113Z,86.914062
2018-09-01T01:26:14.122Z,86.309814
2018-09-01T01:27:29.995Z,86.065674
2018-09-01T01:28:46.008Z,86.816406
2018-09-01T01:30:01.934Z,86.816406
2018-09-01T01:31:17.889Z,86.816406
2018-09-01T01:32:33.858Z,86.16333
2018-09-01T01:35:30.259Z,86.61499
2018-09-01T01:36:46.171Z,86.712646
2018-09-01T01:38:02.100Z,86.676025
2018-09-01T01:39:18.005Z,86.877441
2018-09-01T01:40:33.931Z,86.468506
2018-09-01T01:41:49.940Z,86.816406
2018-09-01T01:43:05.848Z,86.51123
2018-09-01T01:44:21.829Z,86.816406
2018-09-01T01:45:37.846Z,86.914062
2018-09-01T01:46:53.739Z,87.219238
2018-09-01T01:48:09.721Z,87.017822
2018-09-01T01:49:25.814Z,87.017822
2018-09-01T01:50:41.687Z,86.712646
2018-09-01T01:51:57.590Z,86.468506
2018-09-01T01:53:13.507Z,86.468506
2018-09-01T01:54:29.534Z,86.61499
2018-09-01T01:55:45.426Z,86.914062
2018-09-01T01:57:01.376Z,87.060547
2018-09-01T01:58:17.364Z,87.261963
2018-09-01T01:59:33.282Z,86.816406
2018-09-01T02:00:49.238Z,87.463379
2018-09-01T02:02:05.209Z,87.463379
2018-09-01T02:03:21.152Z,87.365723
2018-09-01T02:04:37.082Z,86.755371
2018-09-01T02:05:53.083Z,86.651611
2018-09-01T02:07:09.036Z,86.346436
2018-09-01T02:08:24.926Z,86.004639
2018-09-01T02:09:40.911Z,86.248779
2018-09-01T02:10:56.950Z,86.346436
2018-09-01T02:12:12.926Z,85.742188
2018-09-01T02:13:28.987Z,85.638428
2018-09-01T02:16:26.500Z,85.638428
2018-09-01T02:17:42.467Z,86.14502
2018-09-01T02:18:58.425Z,85.839844
2018-09-01T02:20:14.355Z,85.235596
2018-09-01T02:21:30.257Z,86.047363
2018-09-01T02:22:46.327Z,86.346436
2018-09-01T02:24:02.240Z,86.450195
2018-09-01T02:25:18.212Z,85.943604
2018-09-01T02:26:34.252Z,85.943604
2018-09-01T02:27:50.194Z,86.553955
2018-09-01T02:29:06.137Z,86.553955
2018-09-01T02:30:22.087Z,86.14502
2018-09-01T02:31:38.029Z,86.14502
2018-09-01T02:32:54.048Z,86.047363
2018-09-01T02:34:09.951Z,85.943604
2018-09-01T02:35:26.000Z,85.638428
2018-09-01T02:36:42.046Z,86.450195
2018-09-01T02:37:57.966Z,86.450195
2018-09-01T02:39:14.038Z,86.553955
2018-09-01T02:40:29.909Z,86.346436
2018-09-01T02:41:45.884Z,86.248779
2018-09-01T02:43:01.867Z,85.839844
2018-09-01T02:44:17.782Z,86.450195
2018-09-01T02:45:33.811Z,86.553955
2018-09-01T02:46:49.696Z,86.450195
2018-09-01T02:48:05.696Z,86.248779
2018-09-01T02:49:21.688Z,86.14502
2018-09-01T02:50:37.707Z,86.206055
2018-09-01T02:51:53.710Z,86.309814
2018-09-01T02:53:09.628Z,86.346436
2018-09-01T02:54:25.568Z,86.553955
2018-09-01T02:55:41.610Z,86.309814
2018-09-01T02:56:57.492Z,86.004639
2018-09-01T02:58:13.593Z,86.346436
2018-09-01T02:59:29.574Z,87.060547
2018-09-01T03:00:45.609Z,86.651611
2018-09-01T03:02:01.497Z,86.346436
2018-09-01T03:03:17.382Z,87.060547
2018-09-01T03:04:33.403Z,87.261963
2018-09-01T03:05:49.423Z,87.060547
2018-09-01T03:07:05.331Z,87.261963
2018-09-01T03:08:21.318Z,87.261963
2018-09-01T03:09:37.359Z,87.365723
2018-09-01T03:10:53.274Z,87.158203
2018-09-01T03:12:09.197Z,87.463379
2018-09-01T03:13:25.207Z,87.567139
2018-09-01T03:14:41.161Z,87.158203
2018-09-01T03:15:57.078Z,87.567139
2018-09-01T03:17:13.133Z,87.567139
2018-09-01T03:18:29.135Z,87.768555
2018-09-01T03:19:45.044Z,87.463379
2018-09-01T03:21:01.019Z,87.670898
2018-09-01T03:23:57.734Z,87.969971
2018-09-01T03:25:13.643Z,87.969971
2018-09-01T03:26:29.568Z,87.969971
2018-09-01T03:27:45.516Z,87.768555
2018-09-01T03:29:01.474Z,87.872314
2018-09-01T03:30:17.386Z,88.07373
2018-09-01T03:31:33.413Z,88.17749
2018-09-01T03:32:49.359Z,88.378906
2018-09-01T03:34:05.251Z,88.684082
2018-09-01T03:35:21.153Z,88.885498
2018-09-01T03:36:37.137Z,88.989258
2018-09-01T03:37:53.185Z,88.684082
2018-09-01T03:39:09.291Z,88.580322
2018-09-01T03:40:25.191Z,88.378906
2018-09-01T03:41:41.205Z,88.378906
2018-09-01T03:42:58.100Z,88.482666
2018-09-01T03:44:14.145Z,88.17749
2018-09-01T03:45:30.159Z,87.969971
2018-09-01T03:46:46.131Z,88.275146
2018-09-01T03:48:02.036Z,88.275146
2018-09-01T03:49:17.950Z,88.17749
2018-09-01T03:50:33.864Z,88.580322
2018-09-01T03:51:49.880Z,88.781738
2018-09-01T03:53:05.806Z,88.684082
2018-09-01T03:54:21.708Z,88.684082
2018-09-01T03:55:37.718Z,88.482666
2018-09-01T03:56:53.715Z,88.07373
2018-09-01T03:58:09.652Z,87.72583
2018-09-01T03:59:25.710Z,88.07373
2018-09-01T04:00:41.724Z,88.17749
2018-09-01T04:01:57.612Z,88.275146
2018-09-01T04:03:13.506Z,87.969971
2018-09-01T04:04:29.511Z,88.275146
2018-09-01T04:05:45.590Z,87.969971
2018-09-01T04:07:01.659Z,88.07373
2018-09-01T04:08:17.704Z,88.378906
2018-09-01T04:09:33.708Z,88.232422
2018-09-01T04:10:49.737Z,88.580322
2018-09-01T04:12:05.643Z,89.086914
2018-09-01T04:13:21.528Z,89.086914
2018-09-01T04:14:37.447Z,88.232422
2018-09-01T04:15:53.690Z,88.031006
2018-09-01T04:17:09.821Z,88.232422
2018-09-01T04:18:25.755Z,88.580322
2018-09-01T04:19:41.817Z,88.378906
2018-09-01T04:20:57.738Z,88.684082
2018-09-01T04:22:13.628Z,88.781738
2018-09-01T04:23:29.579Z,88.781738
2018-09-01T04:26:26.172Z,88.684082
2018-09-01T04:27:42.206Z,88.684082
2018-09-01T04:28:58.134Z,88.684082
2018-09-01T04:30:14.161Z,89.294434
2018-09-01T04:31:30.068Z,89.49585
2018-09-01T04:32:45.987Z,89.538574
2018-09-01T04:34:01.865Z,89.538574
2018-09-01T04:35:17.764Z,89.63623
2018-09-01T04:36:33.731Z,89.593506
2018-09-01T04:37:49.622Z,88.781738
2018-09-01T04:39:05.698Z,88.781738
2018-09-01T04:40:21.690Z,88.885498
2018-09-01T04:41:37.817Z,88.684082
2018-09-01T04:42:53.891Z,88.439941
2018-09-01T04:44:09.777Z,88.439941
2018-09-01T04:45:25.708Z,88.580322
2018-09-01T04:46:41.759Z,88.989258
2018-09-01T04:47:57.649Z,88.439941
2018-09-01T04:49:13.635Z,88.482666
2018-09-01T04:50:29.540Z,88.885498
2018-09-01T04:51:45.458Z,88.537598
2018-09-01T04:54:42.053Z,89.190674
2018-09-01T04:55:58.071Z,89.39209
2018-09-01T04:57:13.973Z,89.49585
2018-09-01T04:58:29.885Z,89.086914
2018-09-01T04:59:45.813Z,88.684082
2018-09-01T05:01:01.751Z,88.439941
2018-09-01T05:02:17.584Z,88.482666
2018-09-01T05:03:33.727Z,88.336182
2018-09-01T05:04:49.896Z,88.336182
2018-09-01T05:06:05.930Z,87.93335
2018-09-01T05:07:21.872Z,88.482666
2018-09-01T05:08:37.766Z,88.885498
2018-09-01T05:09:53.781Z,88.482666
2018-09-01T05:11:10.008Z,87.72583
2018-09-01T05:12:25.937Z,87.768555
2018-09-01T05:13:41.993Z,88.482666
2018-09-01T05:14:58.235Z,88.378906
2018-09-01T05:16:14.276Z,88.07373
2018-09-01T05:17:30.413Z,88.07373
2018-09-01T05:18:46.541Z,87.969971
2018-09-01T05:20:02.521Z,88.17749
2018-09-01T05:21:18.605Z,87.670898
2018-09-01T05:22:34.493Z,88.07373
2018-09-01T05:23:50.474Z,87.670898
2018-09-01T05:25:06.433Z,88.07373
2018-09-01T05:26:22.351Z,88.07373
2018-09-01T05:27:38.394Z,87.768555
2018-09-01T05:28:54.432Z,87.969971
2018-09-01T05:30:10.470Z,88.07373
2018-09-01T05:31:26.514Z,87.969971
2018-09-01T05:32:42.458Z,88.17749
2018-09-01T05:33:58.491Z,87.567139
2018-09-01T05:35:14.512Z,87.426758
2018-09-01T05:36:30.532Z,87.121582
2018-09-01T05:37:47.030Z,87.219238
2018-09-01T05:39:02.960Z,87.524414
2018-09-01T05:40:18.964Z,87.463379
2018-09-01T05:41:34.992Z,87.872314
2018-09-01T05:42:50.959Z,87.768555
2018-09-01T05:44:06.960Z,87.365723
2018-09-01T05:45:22.921Z,87.322998
2018-09-01T05:46:38.893Z,87.322998
2018-09-01T05:47:54.836Z,87.463379
2018-09-01T05:49:10.864Z,87.872314
2018-09-01T05:50:26.851Z,87.670898
2018-09-01T05:51:42.895Z,87.567139
2018-09-01T05:52:58.885Z,87.768555
2018-09-01T05:54:14.978Z,87.365723
2018-09-01T05:55:30.931Z,87.158203
2018-09-01T05:56:46.890Z,87.060547
2018-09-01T05:58:02.828Z,87.365723
2018-09-01T05:59:18.774Z,86.816406
2018-09-01T06:00:34.765Z,86.712646
2018-09-01T06:01:50.775Z,86.712646
2018-09-01T06:03:06.715Z,86.309814
2018-09-01T06:04:22.745Z,86.816406
2018-09-01T06:05:38.847Z,86.914062
2018-09-01T06:06:54.911Z,86.712646
2018-09-01T06:08:10.888Z,86.712646
2018-09-01T06:09:27.022Z,86.61499
2018-09-01T06:10:43.137Z,85.900879
2018-09-01T06:11:59.034Z,86.407471
2018-09-01T06:13:15.042Z,86.651611
2018-09-01T06:14:30.994Z,86.712646
2018-09-01T06:15:47.085Z,86.51123
2018-09-01T06:17:03.006Z,86.816406
2018-09-01T06:18:18.965Z,86.651611
2018-09-01T06:19:34.978Z,86.450195
2018-09-01T06:20:50.971Z,86.346436
2018-09-01T06:22:06.932Z,86.004639
2018-09-01T06:23:22.892Z,86.407471
2018-09-01T06:24:38.859Z,86.51123
2018-09-01T06:27:35.598Z,86.407471
2018-09-01T06:28:51.524Z,86.755371
2018-09-01T06:30:07.536Z,86.51123
2018-09-01T06:31:23.501Z,86.61499
2018-09-01T06:32:39.535Z,86.816406
2018-09-01T06:33:55.534Z,86.206055
2018-09-01T06:35:11.511Z,86.004639
2018-09-01T06:36:27.417Z,86.102295
2018-09-01T06:37:43.609Z,86.206055
2018-09-01T06:38:59.464Z,86.004639
2018-09-01T06:40:15.472Z,86.102295
2018-09-01T06:41:31.644Z,86.309814
2018-09-01T06:42:47.570Z,85.900879
2018-09-01T06:44:03.942Z,86.346436
2018-09-01T06:45:19.848Z,86.346436
2018-09-01T06:46:35.780Z,86.102295
2018-09-01T06:47:51.889Z,86.004639
2018-09-01T06:49:07.852Z,85.900879
2018-09-01T06:50:23.766Z,85.803223
2018-09-01T06:51:39.813Z,86.004639
2018-09-01T06:52:55.792Z,86.206055
2018-09-01T06:54:11.878Z,86.407471
2018-09-01T06:57:08.323Z,86.51123
2018-09-01T06:58:24.482Z,86.407471
2018-09-01T06:59:40.583Z,86.61499
2018-09-01T07:00:56.640Z,86.61499
2018-09-01T07:02:12.674Z,86.712646
2018-09-01T07:03:28.600Z,86.309814
2018-09-01T07:04:44.562Z,86.956787
2018-09-01T07:06:00.754Z,87.261963
2018-09-01T07:07:16.759Z,86.859131
2018-09-01T07:08:32.702Z,86.61499
2018-09-01T07:09:48.724Z,86.816406
2018-09-01T07:11:04.718Z,87.463379
2018-09-01T07:12:20.811Z,87.567139
2018-09-01T07:13:36.963Z,87.567139
2018-09-01T07:14:52.934Z,87.463379
2018-09-01T07:16:09.014Z,87.365723
2018-09-01T07:17:25.084Z,87.158203
2018-09-01T07:18:41.023Z,87.261963
2018-09-01T07:19:57.064Z,87.158203
2018-09-01T07:24:09.546Z,86.755371
2018-09-01T07:25:25.488Z,86.859131
2018-09-01T07:26:41.474Z,87.365723
2018-09-01T07:27:57.568Z,86.712646
2018-09-01T07:29:13.566Z,87.017822
2018-09-01T07:30:29.725Z,86.51123
2018-09-01T07:31:45.615Z,86.816406
2018-09-01T07:33:01.694Z,86.914062
2018-09-01T07:34:17.961Z,86.61499
2018-09-01T07:35:34.268Z,86.651611
2018-09-01T07:36:50.454Z,86.206055
2018-09-01T07:38:06.549Z,85.803223
2018-09-01T07:39:22.693Z,85.803223
2018-09-01T07:40:38.781Z,86.004639
2018-09-01T07:41:55.584Z,86.407471
2018-09-01T07:43:12.117Z,86.206055
2018-09-01T07:44:28.120Z,86.206055
2018-09-01T07:45:44.200Z,86.61499
2018-09-01T07:47:00.317Z,86.51123
2018-09-01T07:49:57.212Z,86.407471
2018-09-01T07:52:53.785Z,86.102295
2018-09-01T07:54:09.927Z,86.102295
2018-09-01T07:55:26.066Z,86.004639
2018-09-01T07:56:42.061Z,86.065674
2018-09-01T07:57:58.049Z,86.37085
2018-09-01T07:59:14.173Z,86.26709
2018-09-01T08:00:30.134Z,85.656738
2018-09-01T08:01:46.138Z,85.357666
2018-09-01T08:03:02.241Z,86.065674
2018-09-01T08:04:18.195Z,85.760498
2018-09-01T08:05:34.281Z,85.864258
2018-09-01T08:06:50.293Z,85.760498
2018-09-01T08:08:06.230Z,85.864258
2018-09-01T08:09:22.342Z,86.26709
2018-09-01T08:10:38.304Z,86.61499
2018-09-01T08:11:54.253Z,85.864258
2018-09-01T08:13:10.273Z,85.559082
2018-09-01T08:14:26.410Z,84.643555
2018-09-01T08:15:42.344Z,85.150146
2018-09-01T08:16:58.556Z,85.253906
2018-09-01T08:18:14.599Z,85.05249
2018-09-01T08:19:30.649Z,85.559082
2018-09-01T08:20:46.706Z,84.747314
2018-09-01T08:22:02.766Z,84.747314
2018-09-01T08:23:18.840Z,84.747314
2018-09-01T08:24:34.844Z,85.150146
2018-09-01T08:25:50.795Z,84.94873
2018-09-01T08:27:06.889Z,84.643555
2018-09-01T08:28:22.895Z,84.405518
2018-09-01T08:29:38.882Z,84.197998
2018-09-01T08:30:55.125Z,84.197998
2018-09-01T08:32:11.092Z,85.009766
2018-09-01T08:33:27.176Z,84.912109
2018-09-01T08:34:43.317Z,84.503174
2018-09-01T08:35:59.436Z,84.606934
2018-09-01T08:37:15.380Z,84.197998
2018-09-01T08:38:31.379Z,84.503174
2018-09-01T08:39:47.405Z,85.009766
2018-09-01T08:41:03.494Z,84.80835
2018-09-01T08:42:19.493Z,84.912109
2018-09-01T08:43:35.421Z,84.503174
2018-09-01T08:44:51.495Z,84.100342
2018-09-01T08:46:07.516Z,83.898926
2018-09-01T08:47:23.581Z,84.405518
2018-09-01T08:48:39.656Z,84.301758
2018-09-01T08:51:36.608Z,83.148193
2018-09-01T08:52:52.503Z,83.48999
2018-09-01T08:54:08.593Z,83.795166
2018-09-01T08:55:24.546Z,83.288574
2018-09-01T08:56:40.770Z,83.184814
2018-09-01T08:57:56.676Z,83.184814
2018-09-01T08:59:12.609Z,83.48999
2018-09-01T09:00:28.712Z,83.392334
2018-09-01T09:01:44.725Z,83.392334
2018-09-01T09:03:00.669Z,83.898926
2018-09-01T09:04:16.572Z,83.795166
2018-09-01T09:05:32.532Z,82.983398
2018-09-01T09:06:48.487Z,83.59375
2018-09-01T09:08:04.694Z,84.606934
2018-09-01T09:09:20.633Z,84.503174
2018-09-01T09:10:36.765Z,83.795166
2018-09-01T09:11:52.757Z,83.392334
2018-09-01T09:13:08.676Z,83.227539
2018-09-01T09:14:24.719Z,83.428955
2018-09-01T09:15:40.654Z,83.227539
2018-09-01T09:18:37.567Z,83.392334
2018-09-01T09:19:53.500Z,83.48999
2018-09-01T09:21:10.402Z,83.734131
2018-09-01T09:22:27.027Z,83.227539
2018-09-01T09:23:43.053Z,83.630371
2018-09-01T09:25:01.863Z,83.734131
2018-09-01T09:26:19.086Z,83.734131
2018-09-01T09:27:35.038Z,84.039307
2018-09-01T09:28:51.082Z,84.240723
2018-09-01T09:30:07.147Z,83.630371
2018-09-01T09:31:24.479Z,83.227539
2018-09-01T09:32:41.111Z,84.179688
2018-09-01T09:33:57.046Z,83.978271
2018-09-01T09:35:13.027Z,84.179688
2018-09-01T09:36:29.028Z,84.240723
2018-09-01T09:37:45.100Z,84.545898
2018-09-01T09:39:01.052Z,84.545898
2018-09-01T09:40:17.051Z,84.240723
2018-09-01T09:41:33.106Z,84.442139
2018-09-01T09:42:49.176Z,84.240723
2018-09-01T09:44:05.096Z,84.381104
2018-09-01T09:45:21.103Z,83.935547
2018-09-01T09:46:37.055Z,84.136963
2018-09-01T09:47:53.048Z,83.831787
2018-09-01T09:49:09.113Z,83.935547
2018-09-01T09:50:25.077Z,84.240723
2018-09-01T09:51:41.207Z,84.442139
2018-09-01T09:52:57.384Z,85.192871
2018-09-01T09:54:13.328Z,84.643555
2018-09-01T09:57:10.302Z,85.760498
2018-09-01T09:58:26.277Z,85.559082
2018-09-01T09:59:42.228Z,84.747314
2018-09-01T10:00:58.357Z,84.344482
2018-09-01T10:02:14.249Z,84.545898
2018-09-01T10:03:30.192Z,83.935547
2018-09-01T10:04:46.154Z,83.795166
2018-09-01T10:06:02.184Z,83.795166
2018-09-01T10:07:18.286Z,84.301758
2018-09-01T10:08:34.225Z,84.643555
2018-09-01T10:09:50.175Z,84.240723
2018-09-01T10:11:06.344Z,84.136963
2018-09-01T10:12:22.317Z,84.301758
2018-09-01T10:13:38.301Z,84.301758
2018-09-01T10:14:54.241Z,83.795166
2018-09-01T10:16:10.226Z,83.59375
2018-09-01T10:17:26.270Z,83.184814
2018-09-01T10:18:42.246Z,83.996582
2018-09-01T10:19:58.426Z,83.288574
2018-09-01T10:21:14.274Z,82.843018
2018-09-01T10:22:30.218Z,83.184814
2018-09-01T10:23:46.266Z,83.087158
2018-09-01T10:25:02.268Z,82.073975
2018-09-01T10:26:18.337Z,82.171631
2018-09-01T10:27:34.442Z,82.275391
2018-09-01T10:28:50.408Z,82.781982
2018-09-01T10:30:06.517Z,81.768799
2018-09-01T10:31:22.712Z,81.970215
2018-09-01T10:32:38.753Z,82.678223
2018-09-01T10:35:35.549Z,82.336426
2018-09-01T10:36:51.580Z,82.336426
2018-09-01T10:38:07.535Z,81.768799
2018-09-01T10:39:23.620Z,81.829834
2018-09-01T10:40:39.729Z,81.524658
2018-09-01T10:41:55.859Z,81.524658
2018-09-01T10:43:11.939Z,81.524658
2018-09-01T10:44:28.063Z,82.537842
2018-09-01T10:45:44.047Z,82.23877
2018-09-01T10:47:00.052Z,81.463623
2018-09-01T10:48:16.138Z,81.829834
2018-09-01T10:49:32.078Z,81.732178
2018-09-01T10:50:48.209Z,81.323242
2018-09-01T10:52:04.494Z,81.427002
2018-09-01T10:53:20.474Z,81.225586
2018-09-01T10:54:36.463Z,81.225586
2018-09-01T10:55:52.511Z,81.121826
2018-09-01T10:57:08.494Z,81.02417
2018-09-01T10:58:24.416Z,80.92041
2018-09-01T10:59:40.499Z,80.883789
2018-09-01T11:00:56.364Z,80.981445
2018-09-01T11:02:12.420Z,80.92041
2018-09-01T11:03:28.397Z,80.517578
2018-09-01T11:04:44.361Z,80.377197
2018-09-01T11:06:00.391Z,80.175781
2018-09-01T11:07:16.359Z,79.968262
2018-09-01T11:08:32.293Z,80.175781
2018-09-01T11:09:48.256Z,80.310059
2018-09-01T11:11:04.255Z,79.803467
2018-09-01T11:12:20.348Z,78.894043
2018-09-01T11:13:37.299Z,78.588867
2018-09-01T11:14:53.257Z,79.296875
2018-09-01T11:16:09.310Z,79.705811
2018-09-01T11:17:25.477Z,78.588867
2018-09-01T11:18:41.460Z,77.880859
2018-09-01T11:19:57.385Z,77.679443
2018-09-01T11:21:13.355Z,77.374268
2018-09-01T11:22:29.310Z,78.082275
2018-09-01T11:23:45.255Z,77.880859
2018-09-01T11:25:01.168Z,77.880859
2018-09-01T11:26:17.420Z,77.374268
2018-09-01T11:27:33.539Z,76.733398
2018-09-01T11:28:49.436Z,76.226807
2018-09-01T11:30:05.418Z,77.172852
2018-09-01T11:31:21.435Z,76.934814
2018-09-01T11:32:37.403Z,77.746582
2018-09-01T11:33:53.470Z,77.679443
2018-09-01T11:35:09.427Z,76.263428
2018-09-01T11:36:25.471Z,76.77002
2018-09-01T11:37:41.577Z,76.263428
2018-09-01T11:38:57.791Z,76.324463
2018-09-01T11:40:13.969Z,76.831055
2018-09-01T11:41:30.114Z,76.324463
2018-09-01T11:42:46.247Z,76.428223
2018-09-01T11:44:02.120Z,76.428223
2018-09-01T11:45:18.077Z,76.324463
2018-09-01T11:46:34.150Z,76.934814
2018-09-01T11:47:50.137Z,77.032471
2018-09-01T11:49:06.120Z,77.539062
2018-09-01T11:50:22.103Z,77.539062
2018-09-01T11:51:38.226Z,77.441406
2018-09-01T11:52:54.397Z,76.733398
2018-09-01T11:54:10.346Z,77.032471
2018-09-01T11:55:26.418Z,76.428223
2018-09-01T11:56:42.439Z,76.629639
2018-09-01T11:57:58.511Z,76.733398
2018-09-01T11:59:14.614Z,77.642822
2018-09-01T12:00:30.587Z,77.23999
2018-09-01T12:01:46.722Z,77.23999
2018-09-01T12:03:02.843Z,77.337646
2018-09-01T12:04:18.899Z,77.13623
2018-09-01T12:05:34.920Z,76.831055
2018-09-01T12:06:50.999Z,76.525879
2018-09-01T12:08:06.981Z,77.642822
2018-09-01T12:09:23.089Z,77.642822
2018-09-01T12:10:39.190Z,77.032471
2018-09-01T12:11:55.309Z,76.934814
2018-09-01T12:13:11.296Z,76.733398
2018-09-01T12:14:27.629Z,77.337646
2018-09-01T12:15:43.639Z,77.539062
2018-09-01T12:16:59.618Z,77.13623
2018-09-01T12:18:15.620Z,76.934814
2018-09-01T12:19:31.637Z,76.831055
2018-09-01T12:20:47.750Z,77.13623
2018-09-01T12:25:00.519Z,77.746582
2018-09-01T12:26:16.464Z,77.337646
2018-09-01T12:27:32.432Z,78.045654
2018-09-01T12:28:48.545Z,78.045654
2018-09-01T12:30:04.600Z,78.857422
2018-09-01T12:31:20.684Z,78.045654
2018-09-01T12:32:36.828Z,77.539062
2018-09-01T12:33:52.739Z,78.186035
2018-09-01T12:35:08.793Z,77.642822
2018-09-01T12:36:24.972Z,77.844238
2018-09-01T12:37:40.781Z,77.539062
2018-09-01T12:38:56.767Z,77.844238
2018-09-01T12:40:12.741Z,77.032471
2018-09-01T12:41:28.725Z,76.831055
2018-09-01T12:42:44.752Z,77.539062
2018-09-01T12:44:00.700Z,78.417969
2018-09-01T12:45:16.675Z,76.733398
2018-09-01T12:46:32.828Z,78.210449
2018-09-01T12:47:48.799Z,78.314209
2018-09-01T12:49:04.886Z,78.417969
2018-09-01T12:50:21.025Z,78.552246
2018-09-01T12:51:37.104Z,76.99585
2018-09-01T12:52:53.043Z,78.112793
2018-09-01T12:54:09.096Z,78.918457
2018-09-01T12:55:25.032Z,79.931641
2018-09-01T12:56:41.036Z,80.0354
2018-09-01T12:57:57.207Z,79.833984
2018-09-01T12:59:13.191Z,79.125977
2018-09-01T13:00:29.122Z,79.626465
2018-09-01T13:01:45.081Z,79.425049
2018-09-01T13:03:01.126Z,79.223633
2018-09-01T13:04:17.138Z,78.619385
2018-09-01T13:05:33.183Z,78.076172
2018-09-01T13:06:49.242Z,78.78418
2018-09-01T13:08:05.420Z,78.881836
2018-09-01T13:09:21.439Z,77.203369
2018-09-01T13:10:37.483Z,77.807617
2018-09-01T13:11:53.536Z,80.0354
2018-09-01T13:13:09.615Z,78.619385
2018-09-01T13:14:25.741Z,78.277588
2018-09-01T13:15:41.827Z,77.368164
2018-09-01T13:16:57.723Z,75.579834
2018-09-01T13:18:13.787Z,74.938965
2018-09-01T13:19:29.858Z,75.848389
2018-09-01T13:20:45.853Z,77.264404
2018-09-01T13:22:01.907Z,77.770996
2018-09-01T13:23:17.842Z,77.368164
2018-09-01T13:24:33.971Z,77.166748
2018-09-01T13:25:50.141Z,79.125977
2018-09-01T13:27:06.110Z,78.210449
2018-09-01T13:28:22.101Z,77.807617
2018-09-01T13:29:38.263Z,76.898193
2018-09-01T13:30:54.279Z,75.244141
2018-09-01T13:32:10.275Z,75.750732
2018-09-01T13:33:26.186Z,75.445557
2018-09-01T13:34:42.119Z,75.140381
2018-09-01T13:35:58.261Z,75.280762
2018-09-01T13:37:14.419Z,75.445557
2018-09-01T13:38:30.385Z,77.166748
2018-09-01T13:39:46.324Z,76.45874
2018-09-01T13:41:02.298Z,76.257324
2018-09-01T13:42:18.328Z,75.646973
2018-09-01T13:43:34.408Z,75.140381
2018-09-01T13:44:50.340Z,74.938965
2018-09-01T13:47:47.960Z,75.646973
2018-09-01T13:49:04.015Z,76.049805
2018-09-01T13:50:20.029Z,74.938965
2018-09-01T13:51:35.969Z,75.952148
2018-09-01T13:52:52.061Z,75.280762
2018-09-01T13:54:08.053Z,76.049805
2018-09-01T13:55:24.114Z,76.257324
2018-09-01T13:56:40.074Z,75.579834
2018-09-01T13:57:56.042Z,75.244141
2018-09-01T13:59:12.050Z,75.140381
2018-09-01T14:00:28.064Z,74.871826
2018-09-01T14:01:44.081Z,75.787354
2018-09-01T14:03:00.110Z,76.593018
2018-09-01T14:04:16.091Z,76.190186
2018-09-01T14:05:32.259Z,78.009033
2018-09-01T14:06:48.309Z,78.820801
2018-09-01T14:08:04.422Z,79.125977
2018-09-01T14:09:20.389Z,81.048584
2018-09-01T14:10:36.365Z,82.666016
2018-09-01T14:11:52.402Z,82.263184
2018-09-01T14:13:08.463Z,82.867432
2018-09-01T14:14:24.725Z,82.263184
2018-09-01T14:15:40.613Z,81.854248
2018-09-01T14:16:56.560Z,81.958008
2018-09-01T14:18:12.759Z,82.263184
2018-09-01T14:19:28.726Z,82.055664
2018-09-01T14:20:44.666Z,80.541992
2018-09-01T14:22:00.658Z,80.541992
2018-09-01T14:23:16.690Z,79.528809
2018-09-01T14:24:32.754Z,78.619385
2018-09-01T14:25:48.812Z,78.515625
2018-09-01T14:27:04.849Z,78.314209
2018-09-01T14:28:20.863Z,78.009033
2018-09-01T14:29:36.867Z,78.210449
2018-09-01T14:30:52.906Z,79.425049
2018-09-01T14:32:08.861Z,80.340576
2018-09-01T14:33:24.854Z,81.14624
2018-09-01T14:34:40.967Z,81.347656
2018-09-01T14:35:56.911Z,81.451416
2018-09-01T14:37:12.866Z,79.125977
2018-09-01T14:38:28.820Z,80.67627
2018-09-01T14:39:44.921Z,81.182861
2018-09-01T14:41:01.054Z,80.944824
2018-09-01T14:42:16.984Z,80.883789
2018-09-01T14:43:33.118Z,80.578613
2018-09-01T14:46:29.655Z,81.488037
2018-09-01T14:47:45.878Z,80.133057
2018-09-01T14:49:01.987Z,80.944824
2018-09-01T14:50:18.014Z,80.639648
2018-09-01T14:51:34.142Z,81.549072
2018-09-01T14:52:50.248Z,82.196045
2018-09-01T14:54:06.663Z,83.81958
2018-09-01T14:55:22.634Z,83.71582
2018-09-01T14:56:38.760Z,83.612061
2018-09-01T14:57:55.223Z,84.222412
2018-09-01T14:59:11.251Z,84.020996
2018-09-01T15:00:27.232Z,83.111572